createdAt,value
2023-06-19T03:52:34.925Z,17.70
2023-06-19T03:55:38.264Z,17.70
2023-06-19T03:58:40.678Z,17.34
2023-06-19T04:01:44.531Z,17.41
2023-06-19T04:04:47.177Z,17.33
2023-06-19T04:07:50.772Z,17.27
2023-06-19T04:10:53.845Z,17.39
2023-06-19T04:13:56.334Z,17.46
2023-06-19T04:16:58.948Z,17.44
2023-06-19T04:20:11.740Z,17.56
2023-06-19T04:23:14.849Z,17.56
2023-06-19T04:26:18.738Z,17.55
2023-06-19T04:29:21.683Z,17.63
2023-06-19T04:32:24.103Z,17.70
2023-06-19T04:35:27.289Z,17.79
2023-06-19T04:38:30.052Z,17.84
2023-06-19T04:41:35.028Z,17.87
2023-06-19T04:44:37.532Z,17.92
2023-06-19T04:47:52.737Z,17.99
2023-06-19T04:50:57.302Z,18.12
2023-06-19T04:54:01.020Z,18.31
2023-06-19T04:57:03.460Z,18.45
2023-06-19T05:00:15.661Z,18.54
2023-06-19T05:03:19.107Z,18.78
2023-06-19T05:06:25.521Z,18.86
2023-06-19T05:09:28.065Z,18.91
2023-06-19T05:12:30.753Z,19.05
2023-06-19T05:15:33.369Z,19.09
2023-06-19T05:18:36.123Z,19.02
2023-06-19T05:21:38.617Z,18.93
2023-06-19T05:24:41.874Z,18.99
2023-06-19T05:27:44.426Z,19.21
2023-06-19T05:30:47.200Z,19.45
2023-06-19T05:33:50.963Z,19.45
2023-06-19T05:36:53.777Z,19.40
2023-06-19T05:39:56.249Z,19.48
2023-06-19T05:42:59.141Z,19.69
2023-06-19T05:46:03.391Z,19.78
2023-06-19T05:49:06.307Z,20.03
2023-06-19T05:52:09.186Z,20.06
2023-06-19T05:55:14.498Z,20.16
2023-06-19T05:58:20.889Z,20.41
2023-06-19T06:01:25.861Z,20.74
2023-06-19T06:04:29.024Z,20.64
2023-06-19T06:07:32.279Z,20.61
2023-06-19T06:10:36.124Z,20.77
2023-06-19T06:13:38.634Z,20.94
2023-06-19T06:16:41.437Z,21.41
2023-06-19T06:19:44.083Z,21.81
2023-06-19T06:22:46.910Z,22.08
2023-06-19T06:25:49.549Z,22.16
2023-06-19T06:28:52.135Z,22.66
2023-06-19T06:32:04.738Z,23.11
2023-06-19T06:35:07.877Z,22.88
2023-06-19T06:38:10.670Z,22.88
2023-06-19T06:41:13.419Z,23.13
2023-06-19T06:44:15.845Z,23.17
2023-06-19T06:47:18.568Z,23.20
2023-06-19T06:50:21.332Z,22.95
2023-06-19T06:53:24.458Z,23.01
2023-06-19T06:56:27.367Z,23.46
2023-06-19T06:59:30.194Z,23.67
2023-06-19T07:02:32.806Z,23.65
2023-06-19T07:05:35.418Z,23.70
2023-06-19T07:08:38.382Z,24.05
2023-06-19T07:11:41.117Z,24.42
2023-06-19T07:14:43.504Z,24.50
2023-06-19T07:17:46.730Z,24.45
2023-06-19T07:20:49.308Z,24.50
2023-06-19T07:23:52.061Z,24.51
2023-06-19T07:26:54.498Z,24.38
2023-06-19T07:29:57.391Z,24.56
2023-06-19T07:33:00.014Z,24.61
2023-06-19T07:36:03.924Z,24.74
2023-06-19T07:39:06.425Z,24.97
2023-06-19T07:42:09.504Z,25.13
2023-06-19T07:45:12.539Z,25.08
2023-06-19T07:48:15.133Z,25.24
2023-06-19T07:51:17.615Z,25.28
2023-06-19T07:54:20.301Z,25.20
2023-06-19T07:57:23.734Z,25.56
2023-06-19T08:00:26.873Z,25.69
2023-06-19T08:03:31.285Z,25.61
2023-06-19T08:06:33.783Z,25.87
2023-06-19T08:09:36.855Z,25.93
2023-06-19T08:12:39.191Z,25.90
2023-06-19T08:15:41.882Z,25.89
2023-06-19T08:18:45.563Z,26.05
2023-06-19T08:21:50.494Z,26.26
2023-06-19T08:24:52.910Z,26.38
2023-06-19T08:27:55.536Z,26.43
2023-06-19T08:30:57.780Z,26.53
2023-06-19T08:34:01.472Z,26.87
2023-06-19T08:37:03.798Z,26.99
2023-06-19T08:40:10.379Z,27.07
2023-06-19T08:43:13.018Z,27.05
2023-06-19T08:46:20.567Z,27.11
2023-06-19T08:49:25.611Z,27.09
2023-06-19T08:52:33.112Z,27.13
2023-06-19T08:55:36.615Z,27.34
2023-06-19T08:58:39.526Z,27.30
2023-06-19T09:01:52.778Z,27.43
2023-06-19T09:04:56.535Z,27.66
2023-06-19T09:08:03.589Z,27.72
2023-06-19T09:11:10.005Z,27.57
2023-06-19T09:14:13.550Z,27.51
2023-06-19T09:17:21.664Z,27.95
2023-06-19T09:20:29.288Z,28.17
2023-06-19T09:23:32.247Z,28.70
2023-06-19T09:26:36.597Z,28.65
2023-06-19T09:29:44.856Z,28.61
2023-06-19T09:32:47.512Z,28.49
2023-06-19T09:35:51.840Z,28.23
2023-06-19T09:38:56.988Z,28.25
2023-06-19T09:42:04.765Z,28.49
2023-06-19T09:45:09.109Z,28.28
2023-06-19T09:48:20.587Z,28.40
2023-06-19T09:51:38.077Z,28.52
2023-06-19T09:54:42.301Z,28.29
2023-06-19T09:57:47.372Z,28.64
2023-06-19T10:00:54.735Z,28.96
2023-06-19T10:04:11.947Z,28.98
2023-06-19T10:07:22.995Z,29.02
2023-06-19T10:10:32.146Z,29.16
2023-06-19T10:13:39.932Z,28.91
2023-06-19T10:16:43.323Z,28.76
2023-06-19T10:19:53.350Z,29.25
2023-06-19T10:23:03.576Z,29.33
2023-06-19T10:26:08.346Z,29.35
2023-06-19T10:29:19.187Z,29.09
2023-06-19T10:32:22.780Z,28.65
2023-06-19T10:35:25.971Z,28.98
2023-06-19T10:38:28.868Z,29.42
2023-06-19T10:41:33.072Z,29.97
2023-06-19T10:44:36.336Z,30.23
2023-06-19T10:47:42.191Z,30.21
2023-06-19T10:50:45.375Z,30.02
2023-06-19T10:53:48.517Z,29.77
2023-06-19T10:56:52.433Z,29.76
2023-06-19T10:59:55.150Z,29.98
2023-06-19T11:02:58.858Z,29.63
2023-06-19T11:06:01.577Z,29.62
2023-06-19T11:09:06.444Z,29.87
2023-06-19T11:12:11.469Z,30.31
2023-06-19T11:15:14.756Z,30.66
2023-06-19T11:18:19.690Z,30.74
2023-06-19T11:21:31.842Z,30.94
2023-06-19T11:24:34.777Z,30.36
2023-06-19T11:27:40.457Z,30.56
2023-06-19T11:30:45.424Z,30.75
2023-06-19T11:33:57.403Z,30.96
2023-06-19T11:37:00.716Z,30.78
2023-06-19T11:40:22.142Z,31.03
2023-06-19T11:43:27.136Z,31.03
2023-06-19T11:46:31.889Z,31.06
2023-06-19T11:49:37.847Z,30.34
2023-06-19T11:52:40.972Z,30.73
2023-06-19T11:55:44.881Z,31.00
2023-06-19T11:58:47.348Z,31.04
2023-06-19T12:01:50.029Z,31.13
2023-06-19T12:04:53.015Z,31.27
2023-06-19T12:07:55.473Z,31.26
2023-06-19T12:10:58.152Z,31.29
2023-06-19T12:14:01.469Z,31.25
2023-06-19T12:17:04.685Z,30.44
2023-06-19T12:20:08.890Z,30.52
2023-06-19T12:23:11.767Z,30.70
2023-06-19T12:26:14.615Z,30.98
2023-06-19T12:29:17.461Z,31.29
2023-06-19T12:32:20.007Z,31.38
2023-06-19T12:35:24.171Z,31.54
2023-06-19T12:38:27.575Z,31.71
2023-06-19T12:41:30.332Z,31.58
2023-06-19T12:44:32.847Z,31.59
2023-06-19T12:47:35.651Z,31.21
2023-06-19T12:50:38.264Z,30.69
2023-06-19T12:53:40.928Z,30.59
2023-06-19T12:56:43.123Z,30.44
2023-06-19T12:59:45.772Z,30.41
2023-06-19T13:02:48.289Z,30.53
2023-06-19T13:05:51.300Z,30.56
2023-06-19T13:08:53.686Z,30.33
2023-06-19T13:11:56.557Z,30.18
2023-06-19T13:14:58.929Z,30.23
2023-06-19T13:18:01.645Z,29.88
2023-06-19T13:21:04.129Z,29.62
2023-06-19T13:24:06.911Z,29.78
2023-06-19T13:27:09.361Z,29.75
2023-06-19T13:30:12.641Z,29.91
2023-06-19T13:33:15.686Z,30.03
2023-06-19T13:36:20.304Z,30.39
2023-06-19T13:39:22.878Z,30.06
2023-06-19T13:42:25.609Z,30.10
2023-06-19T13:45:28.014Z,29.98
2023-06-19T13:48:30.605Z,29.79
2023-06-19T13:51:33.883Z,30.01
2023-06-19T13:54:37.252Z,29.67
2023-06-19T13:57:41.301Z,29.38
2023-06-19T14:00:44.043Z,29.27
2023-06-19T14:03:46.742Z,29.21
2023-06-19T14:06:49.011Z,29.55
2023-06-19T14:09:54.447Z,29.32
2023-06-19T14:12:56.793Z,29.42
2023-06-19T14:15:59.477Z,29.47
2023-06-19T14:19:01.795Z,29.20
2023-06-19T14:22:04.487Z,29.63
2023-06-19T14:25:06.981Z,29.39
2023-06-19T14:28:09.711Z,29.38
2023-06-19T14:31:12.359Z,29.91
2023-06-19T14:34:14.817Z,29.77
2023-06-19T14:37:17.937Z,29.55
2023-06-19T14:40:20.542Z,29.08
2023-06-19T14:43:22.928Z,29.17
2023-06-19T14:46:38.134Z,29.11
2023-06-19T14:49:41.888Z,29.07
2023-06-19T14:52:44.635Z,28.61
2023-06-19T14:55:48.076Z,28.45
2023-06-19T14:58:50.686Z,28.32
2023-06-19T15:01:53.161Z,28.47
2023-06-19T15:05:05.754Z,28.51
2023-06-19T15:08:11.127Z,28.58
2023-06-19T15:11:14.238Z,28.87
2023-06-19T15:14:18.334Z,29.26
2023-06-19T15:17:21.158Z,29.59
2023-06-19T15:20:24.026Z,29.99
2023-06-19T15:23:27.033Z,30.19
2023-06-19T15:26:29.805Z,30.33
2023-06-19T15:29:32.513Z,30.34
2023-06-19T15:32:35.500Z,30.36
2023-06-19T15:35:38.444Z,30.46
2023-06-19T15:38:41.087Z,30.54
2023-06-19T15:41:46.514Z,30.59
2023-06-19T15:44:49.202Z,30.65
2023-06-19T15:47:52.035Z,30.64
2023-06-19T15:50:54.432Z,30.52
2023-06-19T15:53:57.041Z,30.25
2023-06-19T15:56:59.587Z,30.23
2023-06-19T16:00:02.097Z,30.28
2023-06-19T16:03:05.222Z,30.37
2023-06-19T16:06:08.860Z,30.33
2023-06-19T16:09:11.462Z,30.27
2023-06-19T16:12:14.404Z,30.29
2023-06-19T16:15:18.884Z,30.28
2023-06-19T16:18:21.682Z,30.22
2023-06-19T16:21:24.231Z,30.19
2023-06-19T16:24:27.004Z,30.10
2023-06-19T16:27:29.479Z,29.98
2023-06-19T16:30:32.247Z,29.81
2023-06-19T16:33:34.516Z,29.75
2023-06-19T16:36:37.766Z,29.77
2023-06-19T16:39:40.181Z,29.67
2023-06-19T16:42:42.923Z,29.71
2023-06-19T16:45:45.185Z,29.69
2023-06-19T16:48:47.707Z,29.53
2023-06-19T16:51:50.305Z,29.54
2023-06-19T16:54:53.131Z,29.48
2023-06-19T16:57:55.633Z,29.49
2023-06-19T17:00:58.458Z,29.49
2023-06-19T17:04:01.000Z,29.43
2023-06-19T17:07:03.901Z,29.21
2023-06-19T17:10:06.813Z,29.14
2023-06-19T17:13:09.632Z,29.17
2023-06-19T17:16:11.875Z,29.16
2023-06-19T17:19:14.456Z,29.08
2023-06-19T17:22:16.797Z,28.99
2023-06-19T17:25:19.331Z,28.83
2023-06-19T17:28:21.591Z,28.67
2023-06-19T17:31:24.245Z,28.55
2023-06-19T17:34:26.686Z,28.52
2023-06-19T17:37:29.285Z,28.47
2023-06-19T17:40:31.737Z,28.45
2023-06-19T17:43:34.458Z,28.41
2023-06-19T17:46:39.450Z,28.31
2023-06-19T17:49:42.823Z,28.21
2023-06-19T17:52:45.192Z,28.11
2023-06-19T17:55:47.946Z,28.05
2023-06-19T17:58:50.422Z,27.97
2023-06-19T18:01:52.950Z,27.93
2023-06-19T18:04:55.463Z,27.87
2023-06-19T18:07:57.876Z,27.78
2023-06-19T18:11:00.547Z,27.69
2023-06-19T18:14:02.953Z,27.54
2023-06-19T18:17:05.783Z,27.45
2023-06-19T18:20:08.534Z,27.37
2023-06-19T18:23:11.207Z,27.25
2023-06-19T18:26:13.602Z,27.24
2023-06-19T18:29:17.002Z,27.16
2023-06-19T18:32:19.253Z,27.10
2023-06-19T18:35:21.817Z,27.08
2023-06-19T18:38:24.228Z,26.98
2023-06-19T18:41:27.026Z,26.86
2023-06-19T18:44:30.791Z,26.68
2023-06-19T18:47:33.643Z,26.61
2023-06-19T18:50:37.172Z,26.49
2023-06-19T18:53:39.956Z,26.30
2023-06-19T18:56:42.843Z,26.20
2023-06-19T18:59:45.593Z,26.16
2023-06-19T19:02:48.213Z,26.07
2023-06-19T19:05:51.076Z,25.92
2023-06-19T19:08:57.237Z,25.87
2023-06-19T19:12:00.102Z,25.79
2023-06-19T19:15:02.634Z,25.71
2023-06-19T19:18:05.690Z,25.59
2023-06-19T19:21:08.129Z,25.55
2023-06-19T19:24:10.784Z,25.44
2023-06-19T19:27:13.129Z,25.36
2023-06-19T19:30:15.921Z,25.26
2023-06-19T19:33:18.443Z,25.16
2023-06-19T19:36:21.406Z,25.07
2023-06-19T19:39:23.896Z,25.03
2023-06-19T19:42:27.728Z,24.94
2023-06-19T19:45:30.032Z,24.85
2023-06-19T19:48:32.571Z,24.76
2023-06-19T19:51:35.086Z,24.65
2023-06-19T19:54:37.762Z,24.56
2023-06-19T19:57:40.628Z,24.51
2023-06-19T20:00:48.509Z,24.40
2023-06-19T20:03:51.200Z,24.34
2023-06-19T20:06:53.872Z,24.32
2023-06-19T20:09:58.449Z,24.24
2023-06-19T20:13:00.799Z,24.10
2023-06-19T20:16:03.398Z,24.04
2023-06-19T20:19:05.816Z,24.03
2023-06-19T20:22:08.378Z,23.97
2023-06-19T20:25:10.731Z,23.91
2023-06-19T20:28:13.717Z,23.89
2023-06-19T20:31:17.301Z,23.76
2023-06-19T20:34:19.971Z,23.66
2023-06-19T20:37:22.358Z,23.62
2023-06-19T20:40:26.521Z,23.56
2023-06-19T20:43:29.214Z,23.51
2023-06-19T20:46:31.916Z,23.51
2023-06-19T20:49:34.285Z,23.46
2023-06-19T20:52:36.996Z,23.45
2023-06-19T20:55:39.408Z,23.34
2023-06-19T20:58:45.173Z,23.24
2023-06-19T21:01:47.584Z,23.15
2023-06-19T21:04:50.250Z,23.05
2023-06-19T21:07:53.016Z,23.00
2023-06-19T21:10:55.725Z,23.05
2023-06-19T21:13:58.122Z,23.14
2023-06-19T21:17:00.924Z,23.10
2023-06-19T21:20:10.265Z,23.01
2023-06-19T21:23:13.114Z,22.96
2023-06-19T21:26:16.061Z,22.85
2023-06-19T21:29:18.753Z,22.69
2023-06-19T21:32:21.304Z,22.75
2023-06-19T21:35:23.929Z,22.70
2023-06-19T21:38:27.367Z,22.74
2023-06-19T21:41:29.985Z,22.72
2023-06-19T21:44:32.365Z,22.67
2023-06-19T21:47:35.141Z,22.59
2023-06-19T21:50:37.649Z,22.57
2023-06-19T21:53:40.403Z,22.48
2023-06-19T21:56:44.072Z,22.42
2023-06-19T21:59:46.927Z,22.34
2023-06-19T22:02:49.710Z,22.30
2023-06-19T22:05:52.439Z,22.21
2023-06-19T22:09:01.138Z,22.18
2023-06-19T22:12:04.108Z,22.16
2023-06-19T22:15:07.028Z,22.16
2023-06-19T22:18:09.946Z,22.18
2023-06-19T22:21:12.361Z,22.22
2023-06-19T22:24:15.107Z,22.12
2023-06-19T22:27:17.965Z,22.03
2023-06-19T22:30:21.094Z,21.99
2023-06-19T22:33:23.491Z,21.86
2023-06-19T22:36:26.381Z,21.83
2023-06-19T22:39:29.450Z,21.82
2023-06-19T22:42:32.201Z,21.71
2023-06-19T22:45:34.603Z,21.66
2023-06-19T22:48:37.362Z,21.60
2023-06-19T22:51:39.724Z,21.48
2023-06-19T22:54:42.409Z,21.47
2023-06-19T22:57:44.857Z,21.46
2023-06-19T23:00:47.734Z,21.35
2023-06-19T23:03:50.233Z,21.23
2023-06-19T23:06:53.327Z,21.30
2023-06-19T23:09:55.665Z,21.35
2023-06-19T23:12:58.190Z,21.35
2023-06-19T23:16:00.560Z,21.30
2023-06-19T23:19:03.839Z,21.23
2023-06-19T23:22:06.805Z,21.19
2023-06-19T23:25:09.706Z,21.14
2023-06-19T23:28:12.348Z,21.03
2023-06-19T23:31:14.990Z,20.94
2023-06-19T23:34:17.545Z,20.92
2023-06-19T23:37:20.298Z,20.91
2023-06-19T23:40:22.864Z,20.88
2023-06-19T23:43:25.528Z,20.83
2023-06-19T23:46:27.993Z,20.77
2023-06-19T23:49:30.636Z,20.68
2023-06-19T23:52:42.762Z,20.68
2023-06-19T23:55:46.844Z,20.58
2023-06-19T23:58:49.157Z,20.55
